Terminal Aerodrome Forecast
Issued by NWS

Home | Current Version | Previous Version | Text Only | Print | Product List | Glossary Off
Versions: 1 2 3 4 5 6 7 8 9 10 11 12 13 14 15 16 17 18 19 20 21 22 23 24

000
FTUS43 KLOT 202126 AAB
TAFDPA
TAF AMD
KDPA 202126Z 2021/2118 26014G22KT P6SM SCT030 BKN040
     FM202145 29022G32KT 3SM SHRA SCT020 OVC035
     FM202210 30014G22KT P6SM BKN060
     FM210200 29011KT P6SM SCT035=

USA.gov is the U.S. government's official web portal to all federal, state and local government web resources and services.